PAYA/YAK METAR and TAF weather

Enter ICAO airport designator
Station Type Date Time Source
PAYA METAR 2020/11/27 14:53 UTC NOAA

PAYA 271453Z AUTO 07008KT 10SM OVC050 02/00 A2977 RMK AO2 RAB08E17 SLP080 P0000 60000 T00170000 58012 TSNO $


Station Type Date Time Source
PAYA Decoded METAR 2020/11/27 14:53 UTC NOAA

YAKUTAT AIRPORT, AK, United States (PAYA) 59-30N 139-40W 9M
Nov 27, 2020 - 09:53 AM EST / 2020.11.27 1453 UTC
Wind: from the ENE (070 degrees) at 9 MPH (8 KT):0
Visibility: 10 mile(s):0
Sky conditions: overcast
Precipitation last hour: A trace
Temperature: 35.1 F (1.7 C)
Dew Point: 32.0 F (0.0 C)
Relative Humidity: 88%
Pressure (altimeter): 29.77 in. Hg (1008 hPa)
Pressure tendency: 0.04 inches (1.2 hPa) lower than three hours ago
ob: PAYA 271453Z AUTO 07008KT 10SM OVC050 02/00 A2977 RMK AO2 RAB08E17 SLP080 P0000 60000 T00170000 58012 TSNO
cycle: 15

Station Type Date Time Source
PAYA TAF 2020/11/27 12:51 UTC NOAA

TAF PAYA 271147Z 2712/2812 09008KT P6SM VCSH OVC050
FM272100 11011G19KT 5SM -SHRASN SCT010 BKN020 OVC030 WS020/12040KT
AMD LTD TO CLD VIS AND WIND

Example: see airport list